sensor_id;sensor_type;location;lat;lon;timestamp;temperature;humidity
21193;DHT22;10754;51.106;7.164;2023-03-23T00:01:11;15.70;1.00
21193;DHT22;10754;51.106;7.164;2023-03-23T00:03:38;15.50;1.00
21193;DHT22;10754;51.106;7.164;2023-03-23T00:06:04;15.50;1.00
21193;DHT22;10754;51.106;7.164;2023-03-23T00:08:33;15.50;1.00
21193;DHT22;10754;51.106;7.164;2023-03-23T00:11:06;15.50;1.00
21193;DHT22;10754;51.106;7.164;2023-03-23T00:13:33;15.70;1.00
21193;DHT22;10754;51.106;7.164;2023-03-23T00:15:58;15.70;1.00
21193;DHT22;10754;51.106;7.164;2023-03-23T00:18:24;15.90;1.00
21193;DHT22;10754;51.106;7.164;2023-03-23T00:20:53;16.10;1.00
21193;DHT22;10754;51.106;7.164;2023-03-23T00:23:19;16.10;1.00
21193;DHT22;10754;51.106;7.164;2023-03-23T00:25:47;15.90;1.00
21193;DHT22;10754;51.106;7.164;2023-03-23T00:28:14;16.20;1.00
21193;DHT22;10754;51.106;7.164;2023-03-23T00:30:40;16.00;1.00
21193;DHT22;10754;51.106;7.164;2023-03-23T00:33:07;16.10;1.00
21193;DHT22;10754;51.106;7.164;2023-03-23T00:35:33;16.10;1.00
21193;DHT22;10754;51.106;7.164;2023-03-23T00:38:01;15.80;1.00
21193;DHT22;10754;51.106;7.164;2023-03-23T00:40:27;16.20;1.00
21193;DHT22;10754;51.106;7.164;2023-03-23T00:42:53;16.10;1.00
21193;DHT22;10754;51.106;7.164;2023-03-23T00:45:18;16.10;1.00
21193;DHT22;10754;51.106;7.164;2023-03-23T00:47:44;16.10;1.00
21193;DHT22;10754;51.106;7.164;2023-03-23T00:50:12;16.10;1.00
21193;DHT22;10754;51.106;7.164;2023-03-23T00:52:40;16.00;1.00
21193;DHT22;10754;51.106;7.164;2023-03-23T00:55:06;15.90;1.00
21193;DHT22;10754;51.106;7.164;2023-03-23T00:57:32;16.00;1.00
21193;DHT22;10754;51.106;7.164;2023-03-23T00:59:57;15.80;1.00
21193;DHT22;10754;51.106;7.164;2023-03-23T01:02:23;15.70;1.00
21193;DHT22;10754;51.106;7.164;2023-03-23T01:04:50;16.00;1.00
21193;DHT22;10754;51.106;7.164;2023-03-23T01:07:18;15.90;1.00
21193;DHT22;10754;51.106;7.164;2023-03-23T01:09:43;16.30;1.00
21193;DHT22;10754;51.106;7.164;2023-03-23T01:12:10;16.10;1.00
21193;DHT22;10754;51.106;7.164;2023-03-23T01:14:36;15.90;1.00
21193;DHT22;10754;51.106;7.164;2023-03-23T01:17:02;16.20;1.00
21193;DHT22;10754;51.106;7.164;2023-03-23T01:19:28;15.80;1.00
21193;DHT22;10754;51.106;7.164;2023-03-23T01:21:53;16.00;1.00
21193;DHT22;10754;51.106;7.164;2023-03-23T01:24:19;15.70;1.00
21193;DHT22;10754;51.106;7.164;2023-03-23T01:26:44;16.20;1.00
21193;DHT22;10754;51.106;7.164;2023-03-23T01:29:10;16.00;1.00
21193;DHT22;10754;51.106;7.164;2023-03-23T01:31:36;16.10;1.00
21193;DHT22;10754;51.106;7.164;2023-03-23T01:34:02;15.80;1.00
21193;DHT22;10754;51.106;7.164;2023-03-23T01:36:29;15.50;1.00
21193;DHT22;10754;51.106;7.164;2023-03-23T01:38:59;15.90;1.00
21193;DHT22;10754;51.106;7.164;2023-03-23T01:41:26;15.80;1.00
21193;DHT22;10754;51.106;7.164;2023-03-23T01:44:05;15.60;1.00
21193;DHT22;10754;51.106;7.164;2023-03-23T01:46:33;15.60;1.00
21193;DHT22;10754;51.106;7.164;2023-03-23T01:49:03;15.70;1.00
21193;DHT22;10754;51.106;7.164;2023-03-23T01:51:35;15.50;1.00
21193;DHT22;10754;51.106;7.164;2023-03-23T01:54:04;15.40;1.00
21193;DHT22;10754;51.106;7.164;2023-03-23T01:56:36;15.30;1.00
21193;DHT22;10754;51.106;7.164;2023-03-23T01:59:09;15.60;1.00
21193;DHT22;10754;51.106;7.164;2023-03-23T02:01:36;15.40;1.00
21193;DHT22;10754;51.106;7.164;2023-03-23T02:04:04;15.30;1.00
21193;DHT22;10754;51.106;7.164;2023-03-23T02:06:31;15.30;1.00
21193;DHT22;10754;51.106;7.164;2023-03-23T02:08:57;15.10;1.00
21193;DHT22;10754;51.106;7.164;2023-03-23T02:11:23;14.90;1.00
21193;DHT22;10754;51.106;7.164;2023-03-23T02:13:49;15.10;1.00
21193;DHT22;10754;51.106;7.164;2023-03-23T02:21:46;14.90;1.00
21193;DHT22;10754;51.106;7.164;2023-03-23T02:24:35;14.80;1.00
21193;DHT22;10754;51.106;7.164;2023-03-23T02:32:38;15.20;1.00
21193;DHT22;10754;51.106;7.164;2023-03-23T02:35:10;15.30;1.00
21193;DHT22;10754;51.106;7.164;2023-03-23T02:37:51;15.20;1.00
21193;DHT22;10754;51.106;7.164;2023-03-23T02:40:27;15.20;1.00
21193;DHT22;10754;51.106;7.164;2023-03-23T02:42:56;15.20;1.00
21193;DHT22;10754;51.106;7.164;2023-03-23T02:45:24;15.20;1.00
21193;DHT22;10754;51.106;7.164;2023-03-23T02:47:53;15.20;1.00
21193;DHT22;10754;51.106;7.164;2023-03-23T02:50:22;15.00;1.00
21193;DHT22;10754;51.106;7.164;2023-03-23T02:52:50;15.00;1.00
21193;DHT22;10754;51.106;7.164;2023-03-23T02:55:18;15.00;1.00
21193;DHT22;10754;51.106;7.164;2023-03-23T02:57:46;15.00;1.00
21193;DHT22;10754;51.106;7.164;2023-03-23T03:00:14;15.00;1.00
21193;DHT22;10754;51.106;7.164;2023-03-23T03:02:46;14.90;1.00
21193;DHT22;10754;51.106;7.164;2023-03-23T03:08:06;14.90;1.00
21193;DHT22;10754;51.106;7.164;2023-03-23T03:10:43;14.90;1.00
21193;DHT22;10754;51.106;7.164;2023-03-23T03:15:54;14.70;1.00
21193;DHT22;10754;51.106;7.164;2023-03-23T03:18:31;14.80;1.00
21193;DHT22;10754;51.106;7.164;2023-03-23T03:21:02;14.70;1.00
21193;DHT22;10754;51.106;7.164;2023-03-23T03:23:31;14.60;1.00
21193;DHT22;10754;51.106;7.164;2023-03-23T03:25:58;14.70;1.00
21193;DHT22;10754;51.106;7.164;2023-03-23T03:28:25;14.50;1.00
21193;DHT22;10754;51.106;7.164;2023-03-23T03:30:54;14.50;1.00
21193;DHT22;10754;51.106;7.164;2023-03-23T03:33:21;14.50;1.00
21193;DHT22;10754;51.106;7.164;2023-03-23T03:35:51;14.70;1.00
21193;DHT22;10754;51.106;7.164;2023-03-23T03:38:17;14.60;1.00
21193;DHT22;10754;51.106;7.164;2023-03-23T03:40:43;14.60;1.00
21193;DHT22;10754;51.106;7.164;2023-03-23T03:43:08;14.60;1.00
21193;DHT22;10754;51.106;7.164;2023-03-23T03:45:34;14.50;1.00
21193;DHT22;10754;51.106;7.164;2023-03-23T03:47:59;14.50;1.00
21193;DHT22;10754;51.106;7.164;2023-03-23T03:50:27;14.40;1.00
21193;DHT22;10754;51.106;7.164;2023-03-23T03:52:52;14.50;1.00
21193;DHT22;10754;51.106;7.164;2023-03-23T03:55:18;14.50;1.00
21193;DHT22;10754;51.106;7.164;2023-03-23T03:57:43;14.20;1.00
21193;DHT22;10754;51.106;7.164;2023-03-23T04:00:10;14.30;1.00
21193;DHT22;10754;51.106;7.164;2023-03-23T04:02:46;14.70;1.00
21193;DHT22;10754;51.106;7.164;2023-03-23T04:05:21;14.60;1.00
21193;DHT22;10754;51.106;7.164;2023-03-23T04:07:48;14.50;1.00
21193;DHT22;10754;51.106;7.164;2023-03-23T04:10:17;14.60;1.00
21193;DHT22;10754;51.106;7.164;2023-03-23T04:12:45;14.60;1.00
21193;DHT22;10754;51.106;7.164;2023-03-23T04:15:10;14.60;1.00
21193;DHT22;10754;51.106;7.164;2023-03-23T04:17:36;14.70;1.00
21193;DHT22;10754;51.106;7.164;2023-03-23T04:20:03;14.80;1.00
21193;DHT22;10754;51.106;7.164;2023-03-23T04:22:38;14.90;1.00
21193;DHT22;10754;51.106;7.164;2023-03-23T04:25:03;14.80;1.00
21193;DHT22;10754;51.106;7.164;2023-03-23T04:27:32;14.80;1.00
21193;DHT22;10754;51.106;7.164;2023-03-23T04:29:58;14.90;1.00
21193;DHT22;10754;51.106;7.164;2023-03-23T04:32:25;14.80;1.00
21193;DHT22;10754;51.106;7.164;2023-03-23T04:34:55;14.90;1.00
21193;DHT22;10754;51.106;7.164;2023-03-23T04:37:22;14.70;1.00
21193;DHT22;10754;51.106;7.164;2023-03-23T04:39:51;14.60;1.00
21193;DHT22;10754;51.106;7.164;2023-03-23T04:42:28;14.60;1.00
21193;DHT22;10754;51.106;7.164;2023-03-23T04:44:55;14.70;1.00
21193;DHT22;10754;51.106;7.164;2023-03-23T04:47:21;14.60;1.00
21193;DHT22;10754;51.106;7.164;2023-03-23T04:49:46;14.70;1.00
21193;DHT22;10754;51.106;7.164;2023-03-23T04:52:12;14.60;1.00
21193;DHT22;10754;51.106;7.164;2023-03-23T04:54:39;14.60;1.00
21193;DHT22;10754;51.106;7.164;2023-03-23T04:57:04;14.60;1.00
21193;DHT22;10754;51.106;7.164;2023-03-23T04:59:30;14.50;1.00
21193;DHT22;10754;51.106;7.164;2023-03-23T05:01:56;14.40;1.00
21193;DHT22;10754;51.106;7.164;2023-03-23T05:04:22;14.40;1.00
21193;DHT22;10754;51.106;7.164;2023-03-23T05:06:48;14.40;1.00
21193;DHT22;10754;51.106;7.164;2023-03-23T05:09:13;14.50;1.00
21193;DHT22;10754;51.106;7.164;2023-03-23T05:11:39;14.30;1.00
21193;DHT22;10754;51.106;7.164;2023-03-23T05:14:05;14.30;1.00
21193;DHT22;10754;51.106;7.164;2023-03-23T05:16:30;14.50;1.00
21193;DHT22;10754;51.106;7.164;2023-03-23T05:18:56;14.50;1.00
21193;DHT22;10754;51.106;7.164;2023-03-23T05:21:24;14.60;1.00
21193;DHT22;10754;51.106;7.164;2023-03-23T05:23:51;14.60;1.00
21193;DHT22;10754;51.106;7.164;2023-03-23T05:26:20;14.60;1.00
21193;DHT22;10754;51.106;7.164;2023-03-23T05:28:46;14.60;1.00
21193;DHT22;10754;51.106;7.164;2023-03-23T05:31:13;14.60;1.00
21193;DHT22;10754;51.106;7.164;2023-03-23T05:33:39;14.60;1.00
21193;DHT22;10754;51.106;7.164;2023-03-23T05:36:05;14.80;1.00
21193;DHT22;10754;51.106;7.164;2023-03-23T05:38:32;14.70;1.00
21193;DHT22;10754;51.106;7.164;2023-03-23T05:41:01;14.70;1.00
21193;DHT22;10754;51.106;7.164;2023-03-23T05:43:26;14.60;1.00
21193;DHT22;10754;51.106;7.164;2023-03-23T05:45:52;14.60;1.00
21193;DHT22;10754;51.106;7.164;2023-03-23T05:48:18;14.50;1.00
21193;DHT22;10754;51.106;7.164;2023-03-23T05:50:43;14.80;1.00
21193;DHT22;10754;51.106;7.164;2023-03-23T05:53:09;14.70;1.00
21193;DHT22;10754;51.106;7.164;2023-03-23T05:55:35;14.60;1.00
21193;DHT22;10754;51.106;7.164;2023-03-23T05:58:00;14.90;1.00
21193;DHT22;10754;51.106;7.164;2023-03-23T06:00:27;14.60;1.00
21193;DHT22;10754;51.106;7.164;2023-03-23T06:02:56;14.70;1.00
21193;DHT22;10754;51.106;7.164;2023-03-23T06:05:22;14.70;1.00
21193;DHT22;10754;51.106;7.164;2023-03-23T06:07:49;14.60;1.00
21193;DHT22;10754;51.106;7.164;2023-03-23T06:10:15;14.70;1.00
21193;DHT22;10754;51.106;7.164;2023-03-23T06:12:41;15.00;1.00
21193;DHT22;10754;51.106;7.164;2023-03-23T06:15:07;14.90;1.00
21193;DHT22;10754;51.106;7.164;2023-03-23T06:17:34;14.70;1.00
21193;DHT22;10754;51.106;7.164;2023-03-23T06:20:02;14.80;1.00
21193;DHT22;10754;51.106;7.164;2023-03-23T06:22:29;14.70;1.00
21193;DHT22;10754;51.106;7.164;2023-03-23T06:24:55;14.80;1.00
21193;DHT22;10754;51.106;7.164;2023-03-23T06:27:23;14.90;1.00
21193;DHT22;10754;51.106;7.164;2023-03-23T06:29:48;14.80;1.00
21193;DHT22;10754;51.106;7.164;2023-03-23T06:32:14;15.00;1.00
21193;DHT22;10754;51.106;7.164;2023-03-23T06:34:40;15.10;1.00
21193;DHT22;10754;51.106;7.164;2023-03-23T06:37:09;14.90;1.00
21193;DHT22;10754;51.106;7.164;2023-03-23T06:39:34;15.30;1.00
21193;DHT22;10754;51.106;7.164;2023-03-23T06:42:01;15.20;1.00
21193;DHT22;10754;51.106;7.164;2023-03-23T06:44:26;15.10;1.00
21193;DHT22;10754;51.106;7.164;2023-03-23T06:46:52;15.20;1.00
21193;DHT22;10754;51.106;7.164;2023-03-23T06:49:17;15.40;1.00
21193;DHT22;10754;51.106;7.164;2023-03-23T06:51:43;15.10;1.00
21193;DHT22;10754;51.106;7.164;2023-03-23T06:54:09;15.10;1.00
21193;DHT22;10754;51.106;7.164;2023-03-23T06:56:34;15.10;1.00
21193;DHT22;10754;51.106;7.164;2023-03-23T06:59:00;14.90;1.00
21193;DHT22;10754;51.106;7.164;2023-03-23T07:01:26;15.20;1.00
21193;DHT22;10754;51.106;7.164;2023-03-23T07:03:53;15.10;1.00
21193;DHT22;10754;51.106;7.164;2023-03-23T07:06:21;15.10;1.00
21193;DHT22;10754;51.106;7.164;2023-03-23T07:08:47;15.30;1.00
21193;DHT22;10754;51.106;7.164;2023-03-23T07:11:12;15.20;1.00
21193;DHT22;10754;51.106;7.164;2023-03-23T07:13:38;15.20;1.00
21193;DHT22;10754;51.106;7.164;2023-03-23T07:16:07;15.20;1.00
21193;DHT22;10754;51.106;7.164;2023-03-23T07:18:33;15.00;1.00
21193;DHT22;10754;51.106;7.164;2023-03-23T07:20:59;15.00;1.00
21193;DHT22;10754;51.106;7.164;2023-03-23T07:23:25;15.10;1.00
21193;DHT22;10754;51.106;7.164;2023-03-23T07:25:51;15.20;1.00
21193;DHT22;10754;51.106;7.164;2023-03-23T07:28:17;15.30;1.00
21193;DHT22;10754;51.106;7.164;2023-03-23T07:30:44;15.30;1.00
21193;DHT22;10754;51.106;7.164;2023-03-23T07:33:10;15.30;1.00
21193;DHT22;10754;51.106;7.164;2023-03-23T07:35:36;15.20;1.00
21193;DHT22;10754;51.106;7.164;2023-03-23T07:38:02;15.60;1.00
21193;DHT22;10754;51.106;7.164;2023-03-23T07:40:29;15.60;1.00
21193;DHT22;10754;51.106;7.164;2023-03-23T07:42:59;15.50;1.00
21193;DHT22;10754;51.106;7.164;2023-03-23T07:45:25;15.90;1.00
21193;DHT22;10754;51.106;7.164;2023-03-23T07:47:50;15.80;1.00
21193;DHT22;10754;51.106;7.164;2023-03-23T07:50:18;15.90;1.00
21193;DHT22;10754;51.106;7.164;2023-03-23T07:52:47;15.70;1.00
21193;DHT22;10754;51.106;7.164;2023-03-23T07:55:13;16.00;1.00
21193;DHT22;10754;51.106;7.164;2023-03-23T07:57:43;16.10;1.00
21193;DHT22;10754;51.106;7.164;2023-03-23T08:00:10;16.00;1.00
21193;DHT22;10754;51.106;7.164;2023-03-23T08:02:41;15.90;1.00
21193;DHT22;10754;51.106;7.164;2023-03-23T08:05:07;15.70;1.00
21193;DHT22;10754;51.106;7.164;2023-03-23T08:07:34;15.90;1.00
21193;DHT22;10754;51.106;7.164;2023-03-23T08:10:00;15.70;1.00
21193;DHT22;10754;51.106;7.164;2023-03-23T08:12:26;15.90;1.00
21193;DHT22;10754;51.106;7.164;2023-03-23T08:14:52;15.80;1.00
21193;DHT22;10754;51.106;7.164;2023-03-23T08:17:19;15.70;1.00
21193;DHT22;10754;51.106;7.164;2023-03-23T08:19:44;15.70;1.00
21193;DHT22;10754;51.106;7.164;2023-03-23T08:22:11;15.80;1.00
21193;DHT22;10754;51.106;7.164;2023-03-23T08:24:37;15.80;1.00
21193;DHT22;10754;51.106;7.164;2023-03-23T08:27:03;16.30;1.00
21193;DHT22;10754;51.106;7.164;2023-03-23T08:29:29;16.30;1.00
21193;DHT22;10754;51.106;7.164;2023-03-23T08:31:54;16.00;1.00
21193;DHT22;10754;51.106;7.164;2023-03-23T08:34:22;16.20;1.00
21193;DHT22;10754;51.106;7.164;2023-03-23T08:36:48;16.00;1.00
21193;DHT22;10754;51.106;7.164;2023-03-23T08:39:14;16.60;1.00
21193;DHT22;10754;51.106;7.164;2023-03-23T08:41:43;16.20;1.00
21193;DHT22;10754;51.106;7.164;2023-03-23T08:44:10;16.20;1.00
21193;DHT22;10754;51.106;7.164;2023-03-23T08:46:35;16.20;1.00
21193;DHT22;10754;51.106;7.164;2023-03-23T08:49:01;16.00;1.00
21193;DHT22;10754;51.106;7.164;2023-03-23T08:51:26;16.10;1.00
21193;DHT22;10754;51.106;7.164;2023-03-23T08:53:53;16.20;1.00
21193;DHT22;10754;51.106;7.164;2023-03-23T08:56:19;16.20;1.00
21193;DHT22;10754;51.106;7.164;2023-03-23T08:58:45;16.10;1.00
21193;DHT22;10754;51.106;7.164;2023-03-23T09:01:11;16.30;1.00
21193;DHT22;10754;51.106;7.164;2023-03-23T09:03:36;16.00;1.00
21193;DHT22;10754;51.106;7.164;2023-03-23T09:06:04;16.10;1.00
21193;DHT22;10754;51.106;7.164;2023-03-23T09:08:31;15.90;1.00
21193;DHT22;10754;51.106;7.164;2023-03-23T09:11:00;16.00;1.00
21193;DHT22;10754;51.106;7.164;2023-03-23T09:13:27;16.20;1.00
21193;DHT22;10754;51.106;7.164;2023-03-23T09:15:53;16.40;1.00
21193;DHT22;10754;51.106;7.164;2023-03-23T09:18:19;16.30;1.00
21193;DHT22;10754;51.106;7.164;2023-03-23T09:20:45;16.20;1.00
21193;DHT22;10754;51.106;7.164;2023-03-23T09:23:11;16.40;1.00
21193;DHT22;10754;51.106;7.164;2023-03-23T09:25:38;16.50;1.00
21193;DHT22;10754;51.106;7.164;2023-03-23T09:28:04;16.20;1.00
21193;DHT22;10754;51.106;7.164;2023-03-23T09:30:32;16.50;1.00
21193;DHT22;10754;51.106;7.164;2023-03-23T09:33:00;16.70;1.00
21193;DHT22;10754;51.106;7.164;2023-03-23T09:35:30;16.50;1.00
21193;DHT22;10754;51.106;7.164;2023-03-23T09:37:56;15.90;1.00
21193;DHT22;10754;51.106;7.164;2023-03-23T09:40:41;16.00;1.00
21193;DHT22;10754;51.106;7.164;2023-03-23T09:46:19;16.20;1.00
21193;DHT22;10754;51.106;7.164;2023-03-23T09:48:53;16.30;1.00
21193;DHT22;10754;51.106;7.164;2023-03-23T09:51:26;16.20;1.00
21193;DHT22;10754;51.106;7.164;2023-03-23T09:53:56;16.10;1.00
21193;DHT22;10754;51.106;7.164;2023-03-23T09:56:24;16.00;1.00
21193;DHT22;10754;51.106;7.164;2023-03-23T10:01:31;16.20;1.00
21193;DHT22;10754;51.106;7.164;2023-03-23T10:04:07;16.40;1.00
21193;DHT22;10754;51.106;7.164;2023-03-23T10:06:34;16.10;1.00
21193;DHT22;10754;51.106;7.164;2023-03-23T10:09:03;16.30;1.00
21193;DHT22;10754;51.106;7.164;2023-03-23T10:22:11;16.40;1.00
21193;DHT22;10754;51.106;7.164;2023-03-23T10:24:47;16.90;99.90
21193;DHT22;10754;51.106;7.164;2023-03-23T10:27:26;16.90;99.90
21193;DHT22;10754;51.106;7.164;2023-03-23T10:30:02;16.80;99.90
21193;DHT22;10754;51.106;7.164;2023-03-23T10:32:50;16.80;99.90
21193;DHT22;10754;51.106;7.164;2023-03-23T10:35:22;16.70;99.90
21193;DHT22;10754;51.106;7.164;2023-03-23T10:37:56;16.60;1.00
21193;DHT22;10754;51.106;7.164;2023-03-23T10:40:27;16.90;99.90
21193;DHT22;10754;51.106;7.164;2023-03-23T10:42:54;16.50;1.00
21193;DHT22;10754;51.106;7.164;2023-03-23T10:45:21;16.50;1.00
21193;DHT22;10754;51.106;7.164;2023-03-23T10:47:55;16.90;1.00
21193;DHT22;10754;51.106;7.164;2023-03-23T10:50:26;16.70;1.00
21193;DHT22;10754;51.106;7.164;2023-03-23T10:52:54;16.80;1.00
21193;DHT22;10754;51.106;7.164;2023-03-23T10:55:23;16.80;1.00
21193;DHT22;10754;51.106;7.164;2023-03-23T10:58:23;16.30;1.00
21193;DHT22;10754;51.106;7.164;2023-03-23T11:00:49;16.30;1.00
21193;DHT22;10754;51.106;7.164;2023-03-23T11:03:27;16.00;1.00
21193;DHT22;10754;51.106;7.164;2023-03-23T11:06:01;16.20;1.00
21193;DHT22;10754;51.106;7.164;2023-03-23T11:08:31;16.80;1.00
21193;DHT22;10754;51.106;7.164;2023-03-23T11:11:10;16.50;1.00
21193;DHT22;10754;51.106;7.164;2023-03-23T11:13:47;16.20;1.00
21193;DHT22;10754;51.106;7.164;2023-03-23T11:16:30;16.10;1.00
21193;DHT22;10754;51.106;7.164;2023-03-23T11:18:58;16.40;1.00
21193;DHT22;10754;51.106;7.164;2023-03-23T11:21:25;16.20;1.00
21193;DHT22;10754;51.106;7.164;2023-03-23T11:23:54;16.00;1.00
21193;DHT22;10754;51.106;7.164;2023-03-23T11:26:26;15.90;1.00
21193;DHT22;10754;51.106;7.164;2023-03-23T11:29:11;15.80;1.00
21193;DHT22;10754;51.106;7.164;2023-03-23T11:31:46;15.60;1.00
21193;DHT22;10754;51.106;7.164;2023-03-23T11:36:51;15.70;1.00
21193;DHT22;10754;51.106;7.164;2023-03-23T11:39:25;15.70;1.00
21193;DHT22;10754;51.106;7.164;2023-03-23T11:41:52;16.20;1.00
21193;DHT22;10754;51.106;7.164;2023-03-23T11:44:18;16.00;1.00
21193;DHT22;10754;51.106;7.164;2023-03-23T11:47:03;15.80;1.00
21193;DHT22;10754;51.106;7.164;2023-03-23T11:49:34;15.60;1.00
21193;DHT22;10754;51.106;7.164;2023-03-23T11:52:10;15.40;1.00
21193;DHT22;10754;51.106;7.164;2023-03-23T11:54:42;15.50;1.00
21193;DHT22;10754;51.106;7.164;2023-03-23T11:57:10;15.40;1.00
21193;DHT22;10754;51.106;7.164;2023-03-23T11:59:38;15.30;1.00
21193;DHT22;10754;51.106;7.164;2023-03-23T12:02:30;15.30;1.00
21193;DHT22;10754;51.106;7.164;2023-03-23T12:05:26;15.30;1.00
21193;DHT22;10754;51.106;7.164;2023-03-23T12:08:01;15.30;1.00
21193;DHT22;10754;51.106;7.164;2023-03-23T12:16:28;15.00;1.00
21193;DHT22;10754;51.106;7.164;2023-03-23T12:19:24;15.00;1.00
21193;DHT22;10754;51.106;7.164;2023-03-23T12:25:50;17.30;1.00
21193;DHT22;10754;51.106;7.164;2023-03-23T12:33:18;16.80;1.00
21193;DHT22;10754;51.106;7.164;2023-03-23T12:35:49;16.50;1.00
21193;DHT22;10754;51.106;7.164;2023-03-23T12:41:16;16.30;1.00
21193;DHT22;10754;51.106;7.164;2023-03-23T12:49:16;16.20;1.00
21193;DHT22;10754;51.106;7.164;2023-03-23T12:51:57;16.30;1.00
21193;DHT22;10754;51.106;7.164;2023-03-23T12:54:36;16.30;1.00
21193;DHT22;10754;51.106;7.164;2023-03-23T12:59:49;16.50;1.00
21193;DHT22;10754;51.106;7.164;2023-03-23T13:02:26;16.40;1.00
21193;DHT22;10754;51.106;7.164;2023-03-23T13:05:02;16.30;1.00
21193;DHT22;10754;51.106;7.164;2023-03-23T13:07:34;16.20;1.00
21193;DHT22;10754;51.106;7.164;2023-03-23T13:10:22;16.20;1.00
21193;DHT22;10754;51.106;7.164;2023-03-23T13:12:48;16.20;1.00
21193;DHT22;10754;51.106;7.164;2023-03-23T13:15:37;16.20;1.00
21193;DHT22;10754;51.106;7.164;2023-03-23T13:18:11;16.20;1.00
21193;DHT22;10754;51.106;7.164;2023-03-23T13:25:52;16.20;1.00
21193;DHT22;10754;51.106;7.164;2023-03-23T13:28:48;16.10;1.00
21193;DHT22;10754;51.106;7.164;2023-03-23T13:34:16;16.10;1.00
21193;DHT22;10754;51.106;7.164;2023-03-23T13:36:53;16.10;1.00
21193;DHT22;10754;51.106;7.164;2023-03-23T13:39:38;16.10;1.00
21193;DHT22;10754;51.106;7.164;2023-03-23T14:05:41;16.00;1.00
21193;DHT22;10754;51.106;7.164;2023-03-23T14:08:12;16.10;1.00
21193;DHT22;10754;51.106;7.164;2023-03-23T14:10:53;15.90;1.00
21193;DHT22;10754;51.106;7.164;2023-03-23T14:13:32;15.80;1.00
21193;DHT22;10754;51.106;7.164;2023-03-23T14:16:04;15.90;1.00
21193;DHT22;10754;51.106;7.164;2023-03-23T14:18:35;15.80;1.00
21193;DHT22;10754;51.106;7.164;2023-03-23T14:21:01;15.80;1.00
21193;DHT22;10754;51.106;7.164;2023-03-23T14:23:33;15.90;1.00
21193;DHT22;10754;51.106;7.164;2023-03-23T14:26:09;16.10;1.00
21193;DHT22;10754;51.106;7.164;2023-03-23T14:28:40;16.00;1.00
21193;DHT22;10754;51.106;7.164;2023-03-23T14:31:19;16.10;1.00
21193;DHT22;10754;51.106;7.164;2023-03-23T14:33:46;16.20;1.00
21193;DHT22;10754;51.106;7.164;2023-03-23T14:36:14;16.30;1.00
21193;DHT22;10754;51.106;7.164;2023-03-23T14:38:39;16.20;1.00
21193;DHT22;10754;51.106;7.164;2023-03-23T14:41:05;16.10;1.00
21193;DHT22;10754;51.106;7.164;2023-03-23T14:43:33;16.00;1.00
21193;DHT22;10754;51.106;7.164;2023-03-23T14:46:02;15.90;1.00
21193;DHT22;10754;51.106;7.164;2023-03-23T14:48:30;15.90;1.00
21193;DHT22;10754;51.106;7.164;2023-03-23T14:51:01;15.90;1.00
21193;DHT22;10754;51.106;7.164;2023-03-23T14:53:35;15.90;1.00
21193;DHT22;10754;51.106;7.164;2023-03-23T14:56:06;15.80;1.00
21193;DHT22;10754;51.106;7.164;2023-03-23T14:58:34;15.80;1.00
21193;DHT22;10754;51.106;7.164;2023-03-23T15:01:13;15.80;1.00
21193;DHT22;10754;51.106;7.164;2023-03-23T15:03:43;15.80;1.00
21193;DHT22;10754;51.106;7.164;2023-03-23T15:06:15;15.70;1.00
21193;DHT22;10754;51.106;7.164;2023-03-23T15:08:41;15.70;1.00
21193;DHT22;10754;51.106;7.164;2023-03-23T15:11:22;15.70;1.00
21193;DHT22;10754;51.106;7.164;2023-03-23T15:14:00;15.70;1.00
21193;DHT22;10754;51.106;7.164;2023-03-23T15:16:31;15.70;1.00
21193;DHT22;10754;51.106;7.164;2023-03-23T15:19:13;15.80;1.00
21193;DHT22;10754;51.106;7.164;2023-03-23T15:22:04;15.80;1.00
21193;DHT22;10754;51.106;7.164;2023-03-23T15:24:38;15.80;1.00
21193;DHT22;10754;51.106;7.164;2023-03-23T15:27:23;15.80;1.00
21193;DHT22;10754;51.106;7.164;2023-03-23T15:32:55;15.90;1.00
21193;DHT22;10754;51.106;7.164;2023-03-23T15:35:25;15.90;1.00
21193;DHT22;10754;51.106;7.164;2023-03-23T15:38:03;16.00;1.00
21193;DHT22;10754;51.106;7.164;2023-03-23T15:40:36;16.20;1.00
21193;DHT22;10754;51.106;7.164;2023-03-23T15:43:07;16.20;1.00
21193;DHT22;10754;51.106;7.164;2023-03-23T15:45:33;16.20;1.00
21193;DHT22;10754;51.106;7.164;2023-03-23T15:48:11;16.20;1.00
21193;DHT22;10754;51.106;7.164;2023-03-23T15:50:36;16.30;1.00
21193;DHT22;10754;51.106;7.164;2023-03-23T15:55:45;16.40;1.00
21193;DHT22;10754;51.106;7.164;2023-03-23T15:58:12;16.30;1.00
21193;DHT22;10754;51.106;7.164;2023-03-23T16:00:39;16.40;1.00
21193;DHT22;10754;51.106;7.164;2023-03-23T16:03:09;16.40;1.00
21193;DHT22;10754;51.106;7.164;2023-03-23T16:05:36;16.60;1.00
21193;DHT22;10754;51.106;7.164;2023-03-23T16:08:01;16.80;1.00
21193;DHT22;10754;51.106;7.164;2023-03-23T16:10:29;17.20;1.00
21193;DHT22;10754;51.106;7.164;2023-03-23T16:12:55;17.30;1.00
21193;DHT22;10754;51.106;7.164;2023-03-23T16:15:20;17.30;1.00
21193;DHT22;10754;51.106;7.164;2023-03-23T16:17:46;17.30;1.00
21193;DHT22;10754;51.106;7.164;2023-03-23T16:20:21;17.40;1.00
21193;DHT22;10754;51.106;7.164;2023-03-23T16:22:47;17.40;1.00
21193;DHT22;10754;51.106;7.164;2023-03-23T16:25:14;17.60;1.00
21193;DHT22;10754;51.106;7.164;2023-03-23T16:27:41;17.40;1.00
21193;DHT22;10754;51.106;7.164;2023-03-23T16:30:26;17.60;1.00
21193;DHT22;10754;51.106;7.164;2023-03-23T16:32:53;17.60;1.00
21193;DHT22;10754;51.106;7.164;2023-03-23T16:35:19;17.20;1.00
21193;DHT22;10754;51.106;7.164;2023-03-23T16:37:51;17.50;1.00
21193;DHT22;10754;51.106;7.164;2023-03-23T16:40:18;17.20;1.00
21193;DHT22;10754;51.106;7.164;2023-03-23T16:42:44;17.10;1.00
21193;DHT22;10754;51.106;7.164;2023-03-23T16:45:10;17.00;1.00
21193;DHT22;10754;51.106;7.164;2023-03-23T16:47:36;17.00;1.00
21193;DHT22;10754;51.106;7.164;2023-03-23T16:50:02;17.00;1.00
21193;DHT22;10754;51.106;7.164;2023-03-23T16:52:31;17.10;1.00
21193;DHT22;10754;51.106;7.164;2023-03-23T16:54:56;17.00;1.00
21193;DHT22;10754;51.106;7.164;2023-03-23T16:57:22;17.60;1.00
21193;DHT22;10754;51.106;7.164;2023-03-23T16:59:47;17.50;1.00
21193;DHT22;10754;51.106;7.164;2023-03-23T17:02:13;17.10;1.00
21193;DHT22;10754;51.106;7.164;2023-03-23T17:04:42;17.00;1.00
21193;DHT22;10754;51.106;7.164;2023-03-23T17:07:08;16.90;1.00
21193;DHT22;10754;51.106;7.164;2023-03-23T17:09:34;17.00;1.00
21193;DHT22;10754;51.106;7.164;2023-03-23T17:11:59;17.10;1.00
21193;DHT22;10754;51.106;7.164;2023-03-23T17:14:25;17.30;1.00
21193;DHT22;10754;51.106;7.164;2023-03-23T17:16:51;17.00;1.00
21193;DHT22;10754;51.106;7.164;2023-03-23T17:19:16;17.30;1.00
21193;DHT22;10754;51.106;7.164;2023-03-23T17:21:42;16.70;1.00
21193;DHT22;10754;51.106;7.164;2023-03-23T17:24:08;17.00;1.00
21193;DHT22;10754;51.106;7.164;2023-03-23T17:26:34;16.80;1.00
21193;DHT22;10754;51.106;7.164;2023-03-23T17:29:00;17.00;1.00
21193;DHT22;10754;51.106;7.164;2023-03-23T17:31:26;16.90;1.00
21193;DHT22;10754;51.106;7.164;2023-03-23T17:33:51;16.70;1.00
21193;DHT22;10754;51.106;7.164;2023-03-23T17:36:17;16.80;1.00